Time;durP1;ratioP1;P1;durP2;ratioP2;P2;SDS_P1;SDS_P2;PMS_P1;PMS_P2;Temp;Humidity;BMP_temperature;BMP_pressure;BME280_temperature;BME280_humidity;BME280_pressure;Samples;Min_cycle;Max_cycle;Signal;HPM_P1;HPM_P2
2022/04/13 00:01:18;;;;;;;3.60;3.30;;;12.90;24.70;;;;;;10381281;28;20663;-77
2022/04/13 00:06:22;;;;;;;3.43;3.13;;;12.90;24.90;;;;;;10380492;28;20235;-77
2022/04/13 00:11:25;;;;;;;3.20;2.70;;;12.80;24.70;;;;;;10381637;28;20232;-77
2022/04/13 00:16:31;;;;;;;3.13;2.83;;;12.80;24.80;;;;;;10383094;28;20228;-77
2022/04/13 00:21:34;;;;;;;2.93;2.73;;;12.70;25.10;;;;;;10380327;28;20233;-77
2022/04/13 00:26:37;;;;;;;4.60;3.20;;;12.70;24.90;;;;;;10378466;28;20221;-77
2022/04/13 00:31:41;;;;;;;3.20;2.93;;;12.60;24.80;;;;;;10385387;28;20245;-77
2022/04/13 00:36:45;;;;;;;3.50;3.20;;;12.60;25.10;;;;;;10377080;28;20713;-77
2022/04/13 00:41:48;;;;;;;4.50;3.80;;;12.60;25.00;;;;;;10383712;28;20232;-77
2022/04/13 00:46:52;;;;;;;4.60;3.90;;;12.40;25.00;;;;;;10372023;28;20233;-77
2022/04/13 00:51:59;;;;;;;4.10;3.63;;;12.40;25.10;;;;;;10384690;28;20224;-76
2022/04/13 00:57:09;;;;;;;5.03;3.67;;;12.30;25.40;;;;;;10376606;28;20222;-76
2022/04/13 01:02:13;;;;;;;4.40;3.40;;;12.10;25.70;;;;;;10380835;28;20230;-77
2022/04/13 01:07:17;;;;;;;3.40;2.93;;;12.00;25.50;;;;;;10378423;28;20728;-77
2022/04/13 01:12:20;;;;;;;3.77;2.93;;;11.90;25.40;;;;;;10372403;28;20228;-77
2022/04/13 01:17:25;;;;;;;2.77;2.57;;;11.90;25.50;;;;;;10380761;28;20230;-77
2022/04/13 01:22:30;;;;;;;2.97;2.77;;;11.90;25.70;;;;;;10379121;28;20239;-77
2022/04/13 01:27:33;;;;;;;2.73;2.53;;;11.90;25.70;;;;;;10379010;28;20724;-77
2022/04/13 01:32:36;;;;;;;3.07;2.80;;;11.90;25.50;;;;;;10377535;28;20228;-77
2022/04/13 01:37:41;;;;;;;3.53;3.23;;;11.90;25.70;;;;;;10383850;28;20233;-77
2022/04/13 01:42:47;;;;;;;3.40;3.10;;;11.80;25.80;;;;;;10382308;28;20218;-77
2022/04/13 01:47:51;;;;;;;4.30;3.90;;;11.80;25.70;;;;;;10387557;28;20233;-77
2022/04/13 01:52:56;;;;;;;4.30;3.20;;;11.70;25.80;;;;;;10385286;28;20461;-77
2022/04/13 01:58:00;;;;;;;4.43;3.97;;;11.60;25.80;;;;;;10376629;28;20227;-77
2022/04/13 02:03:03;;;;;;;3.90;3.50;;;11.50;25.90;;;;;;10388400;28;20233;-76
2022/04/13 02:08:09;;;;;;;4.07;3.73;;;11.40;26.00;;;;;;10379153;28;20232;-76
2022/04/13 02:13:12;;;;;;;4.50;4.10;;;11.40;26.30;;;;;;10385065;28;20218;-76
2022/04/13 02:18:16;;;;;;;4.57;4.17;;;11.40;26.10;;;;;;10381944;28;20238;-77
2022/04/13 02:23:20;;;;;;;4.47;4.07;;;11.30;26.20;;;;;;10384029;28;20225;-77
2022/04/13 02:28:24;;;;;;;5.00;4.37;;;11.30;26.40;;;;;;10382462;28;20599;-76
2022/04/13 02:33:31;;;;;;;4.60;4.20;;;11.20;26.20;;;;;;10380459;28;20252;-77
2022/04/13 02:38:35;;;;;;;7.00;4.23;;;11.10;26.20;;;;;;10387586;28;20225;-76
2022/04/13 02:43:39;;;;;;;5.30;3.67;;;11.10;26.40;;;;;;10382839;28;20237;-76
2022/04/13 02:48:42;;;;;;;5.67;3.60;;;11.00;26.20;;;;;;10382072;28;20222;-77
2022/04/13 02:53:46;;;;;;;4.73;4.20;;;10.90;26.20;;;;;;10380718;28;20221;-77
2022/04/13 02:58:49;;;;;;;5.07;4.40;;;10.70;26.50;;;;;;10388608;28;20226;-76
2022/04/13 03:03:53;;;;;;;4.77;3.93;;;10.40;26.40;;;;;;10387182;28;20229;-77
2022/04/13 03:08:58;;;;;;;4.53;4.13;;;10.30;26.80;;;;;;10381196;28;20237;-77
2022/04/13 03:14:01;;;;;;;5.20;4.67;;;10.30;27.10;;;;;;10384260;28;20234;-77
2022/04/13 03:19:04;;;;;;;4.40;4.00;;;10.20;26.90;;;;;;10384011;28;20233;-76
2022/04/13 03:24:09;;;;;;;4.63;4.17;;;10.10;27.00;;;;;;10378528;28;20230;-76
2022/04/13 03:29:12;;;;;;;4.53;4.13;;;10.10;27.50;;;;;;10377475;28;20222;-76
2022/04/13 03:34:20;;;;;;;4.43;4.03;;;10.20;27.20;;;;;;10377807;28;20744;-76
2022/04/13 03:39:24;;;;;;;4.13;3.60;;;10.20;27.10;;;;;;10381119;28;20234;-76
2022/04/13 03:44:28;;;;;;;4.27;3.97;;;10.20;27.30;;;;;;10379716;28;20240;-77
2022/04/13 03:49:31;;;;;;;5.10;3.80;;;10.20;27.30;;;;;;10390205;28;20237;-77
2022/04/13 03:54:35;;;;;;;4.13;3.73;;;10.30;27.40;;;;;;10380974;28;20230;-77
2022/04/13 03:59:38;;;;;;;3.47;3.17;;;10.30;27.60;;;;;;10383830;28;20222;-76
2022/04/13 04:04:42;;;;;;;4.30;3.90;;;10.30;27.30;;;;;;10378639;28;20221;-76
2022/04/13 04:09:46;;;;;;;3.97;3.67;;;10.30;27.50;;;;;;10384174;28;20213;-76
2022/04/13 04:14:49;;;;;;;3.97;3.60;;;10.30;27.60;;;;;;10379205;28;20591;-77
2022/04/13 04:19:52;;;;;;;4.73;4.10;;;10.30;27.40;;;;;;10384086;28;20226;-77
2022/04/13 04:24:57;;;;;;;4.70;4.20;;;10.30;27.50;;;;;;10382823;28;20611;-76
2022/04/13 04:30:01;;;;;;;4.07;3.67;;;10.30;27.70;;;;;;10379290;28;20279;-77
2022/04/13 04:35:06;;;;;;;4.17;3.60;;;10.20;27.40;;;;;;10378733;28;20229;-76
2022/04/13 04:40:11;;;;;;;7.50;4.50;;;10.10;27.70;;;;;;10380522;28;20236;-76
2022/04/13 04:45:17;;;;;;;4.57;3.70;;;10.00;28.30;;;;;;10380994;28;20226;-76
2022/04/13 04:50:22;;;;;;;4.50;4.10;;;10.00;27.90;;;;;;10381070;28;20593;-75
2022/04/13 04:55:27;;;;;;;5.37;4.87;;;10.00;28.40;;;;;;10371383;28;20241;-75
2022/04/13 05:00:35;;;;;;;9.13;8.33;;;10.00;28.30;;;;;;10385048;28;20225;-74
2022/04/13 05:05:41;;;;;;;8.80;7.20;;;10.00;28.30;;;;;;10378440;28;20313;-75
2022/04/13 05:10:50;;;;;;;6.47;5.87;;;10.00;28.30;;;;;;10379113;28;20226;-74
2022/04/13 05:15:54;;;;;;;7.73;7.03;;;10.00;28.30;;;;;;10380873;28;20231;-75
2022/04/13 05:20:57;;;;;;;6.67;6.07;;;10.00;28.30;;;;;;10386641;28;20218;-74
2022/04/13 05:26:01;;;;;;;6.83;6.13;;;10.00;28.30;;;;;;10386531;28;20607;-75
2022/04/13 05:31:05;;;;;;;8.03;6.00;;;10.00;28.30;;;;;;10377818;28;20241;-75
2022/04/13 05:36:08;;;;;;;5.03;4.53;;;10.10;28.40;;;;;;10381138;28;20259;-75
2022/04/13 05:41:13;;;;;;;4.83;4.40;;;10.10;28.40;;;;;;10378812;28;20227;-75
2022/04/13 05:46:16;;;;;;;9.27;5.73;;;10.20;28.50;;;;;;10385570;28;20226;-75
2022/04/13 05:51:19;;;;;;;13.83;5.33;;;10.20;28.40;;;;;;10382620;28;20225;-75
2022/04/13 05:56:24;;;;;;;7.40;5.90;;;10.30;28.50;;;;;;10381299;28;20237;-75
2022/04/13 06:01:31;;;;;;;9.33;5.60;;;10.30;28.50;;;;;;10387791;28;20241;-74
2022/04/13 06:06:35;;;;;;;7.23;5.70;;;10.40;28.60;;;;;;10387477;28;20230;-75
2022/04/13 06:11:39;;;;;;;8.07;6.20;;;10.40;28.60;;;;;;10377034;28;20224;-74
2022/04/13 06:16:43;;;;;;;6.23;5.63;;;10.40;28.90;;;;;;10385228;28;20230;-75
2022/04/13 06:21:46;;;;;;;7.87;6.10;;;10.50;28.70;;;;;;10380868;28;20234;-75
2022/04/13 06:26:50;;;;;;;7.10;6.00;;;10.60;28.70;;;;;;10384112;28;20221;-75
2022/04/13 06:31:53;;;;;;;6.13;5.63;;;10.70;29.20;;;;;;10382610;28;21703;-75
2022/04/13 06:37:00;;;;;;;5.93;5.40;;;10.70;28.90;;;;;;10376007;28;20227;-75
2022/04/13 06:42:05;;;;;;;6.00;5.43;;;10.90;29.00;;;;;;10378121;28;20221;-75
2022/04/13 06:47:08;;;;;;;5.77;5.20;;;11.00;29.20;;;;;;10386576;28;20234;-75
2022/04/13 06:52:12;;;;;;;5.17;4.67;;;11.10;29.10;;;;;;10386092;28;20230;-75
2022/04/13 06:57:17;;;;;;;5.47;4.97;;;11.20;29.20;;;;;;10378920;28;20234;-75
2022/04/13 07:02:21;;;;;;;5.70;4.43;;;11.30;29.60;;;;;;10377325;28;20229;-72
2022/04/13 07:07:24;;;;;;;5.10;4.60;;;11.50;29.40;;;;;;10378483;28;20236;-71
2022/04/13 07:12:34;;;;;;;5.33;4.83;;;11.60;29.40;;;;;;10374230;28;20230;-72
2022/04/13 07:17:37;;;;;;;5.90;4.80;;;11.70;30.60;;;;;;10376350;28;20234;-72
2022/04/13 07:22:44;;;;;;;5.93;5.20;;;11.90;29.60;;;;;;10379684;28;20305;-72
2022/04/13 07:27:49;;;;;;;5.33;4.83;;;12.00;30.50;;;;;;10376420;28;20226;-76
2022/04/13 07:32:54;;;;;;;5.93;4.90;;;12.20;30.00;;;;;;10382247;28;20313;-76
2022/04/13 07:37:58;;;;;;;5.73;4.80;;;12.40;30.00;;;;;;10373567;28;20272;-75
2022/04/13 07:43:03;;;;;;;5.83;4.97;;;12.50;30.00;;;;;;10379476;28;20227;-75
2022/04/13 07:48:07;;;;;;;5.40;4.90;;;12.70;30.10;;;;;;10376880;28;20229;-75
2022/04/13 07:53:11;;;;;;;5.73;5.00;;;12.90;30.30;;;;;;10378643;28;20226;-75
2022/04/13 07:58:16;;;;;;;5.03;4.57;;;13.20;30.50;;;;;;10374133;28;20724;-75
2022/04/13 08:03:19;;;;;;;5.03;4.20;;;13.40;30.70;;;;;;10373641;28;20244;-75
2022/04/13 08:08:37;;;;;;;6.07;4.57;;;13.70;30.90;;;;;;10378277;28;20224;-75
2022/04/13 08:13:41;;;;;;;5.13;4.27;;;13.90;30.30;;;;;;10377931;28;20260;-76
2022/04/13 08:18:51;;;;;;;4.67;4.27;;;14.20;30.30;;;;;;10378527;28;20336;-76
2022/04/13 08:23:54;;;;;;;5.20;4.40;;;14.40;30.10;;;;;;10374261;28;20230;-76
2022/04/13 08:28:59;;;;;;;4.47;4.07;;;14.70;30.00;;;;;;10373074;28;20226;-76
2022/04/13 08:34:02;;;;;;;5.10;4.20;;;15.00;30.10;;;;;;10373079;28;20236;-76
2022/04/13 08:39:13;;;;;;;4.43;4.03;;;15.20;29.90;;;;;;10372578;28;20234;-76
2022/04/13 08:44:23;;;;;;;5.90;4.07;;;15.50;29.80;;;;;;10373365;28;20923;-76
2022/04/13 08:49:26;;;;;;;5.53;4.23;;;15.80;29.80;;;;;;10387226;28;20218;-76
2022/04/13 08:54:40;;;;;;;4.60;4.20;;;16.10;29.50;;;;;;10382437;28;20229;-76
2022/04/13 08:59:52;;;;;;;4.53;4.13;;;16.30;29.50;;;;;;10387961;28;20230;-76
2022/04/13 09:05:00;;;;;;;4.47;4.07;;;16.60;29.40;;;;;;10385201;28;20237;-76
2022/04/13 09:10:04;;;;;;;5.00;3.87;;;16.90;29.20;;;;;;10387516;28;20314;-76
2022/04/13 09:15:13;;;;;;;4.37;4.00;;;17.10;29.40;;;;;;10384860;28;20238;-76
2022/04/13 09:20:16;;;;;;;4.30;3.90;;;17.40;29.20;;;;;;10388563;28;20716;-75
2022/04/13 09:25:20;;;;;;;4.43;4.00;;;17.60;29.40;;;;;;10381531;28;20236;-76
2022/04/13 09:30:25;;;;;;;4.20;3.90;;;17.90;29.00;;;;;;10385192;28;20232;-76
2022/04/13 09:35:32;;;;;;;4.70;4.30;;;18.10;28.70;;;;;;10378418;28;20233;-76
2022/04/13 09:40:37;;;;;;;4.50;4.10;;;18.30;28.40;;;;;;10384009;28;20236;-76
2022/04/13 09:45:43;;;;;;;5.20;4.20;;;18.50;28.20;;;;;;10380991;28;20234;-76
2022/04/13 09:50:48;;;;;;;6.33;4.30;;;18.60;28.30;;;;;;10383525;28;20234;-76
2022/04/13 09:55:53;;;;;;;5.40;4.57;;;18.80;28.20;;;;;;10381213;28;20233;-77
2022/04/13 10:01:00;;;;;;;5.00;4.50;;;19.00;28.30;;;;;;10384428;28;20642;-76
2022/04/13 10:06:04;;;;;;;4.97;4.57;;;19.10;28.00;;;;;;10382281;28;20736;-76
2022/04/13 10:11:09;;;;;;;4.90;4.50;;;19.30;28.30;;;;;;10384242;28;20226;-76
2022/04/13 10:16:14;;;;;;;4.73;4.33;;;19.50;27.90;;;;;;10381559;28;20230;-76
2022/04/13 10:21:34;;;;;;;4.97;4.30;;;19.60;27.70;;;;;;10378333;28;20309;-76
2022/04/13 10:26:42;;;;;;;4.53;4.10;;;19.80;27.70;;;;;;10381977;28;20221;-76
2022/04/13 10:32:09;;;;;;;5.00;4.60;;;20.00;27.90;;;;;;10387833;28;20286;-77
2022/04/13 10:37:14;;;;;;;4.57;4.17;;;20.30;27.70;;;;;;10379905;28;20230;-76
2022/04/13 10:42:18;;;;;;;5.23;4.40;;;20.50;27.80;;;;;;10379138;28;20231;-76
2022/04/13 10:47:30;;;;;;;4.53;4.13;;;20.70;27.60;;;;;;10380262;28;20341;-76
2022/04/13 10:52:38;;;;;;;6.30;4.67;;;21.00;26.90;;;;;;10380394;28;20226;-76
2022/04/13 10:57:43;;;;;;;4.97;4.40;;;21.10;27.00;;;;;;10381103;28;20234;-76
2022/04/13 11:02:54;;;;;;;4.40;4.00;;;21.20;26.90;;;;;;10379185;28;20617;-76
2022/04/13 11:08:10;;;;;;;4.33;4.03;;;21.30;26.20;;;;;;10380026;28;20717;-76
2022/04/13 11:13:13;;;;;;;4.27;3.97;;;21.40;26.30;;;;;;10376416;28;20613;-76
2022/04/13 11:18:20;;;;;;;4.60;4.20;;;21.60;26.50;;;;;;10380548;28;20772;-77
2022/04/13 11:23:23;;;;;;;4.73;3.97;;;21.70;26.50;;;;;;10380996;28;20254;-77
2022/04/13 11:28:28;;;;;;;4.50;4.10;;;21.80;26.50;;;;;;10372985;28;20333;-76
2022/04/13 11:33:53;;;;;;;4.40;4.00;;;22.00;26.70;;;;;;10383728;28;20236;-76
2022/04/13 11:38:56;;;;;;;4.33;3.97;;;22.10;26.20;;;;;;10373063;28;20234;-77
2022/04/13 11:44:17;;;;;;;3.60;3.30;;;22.20;26.80;;;;;;10377149;28;20241;-77
2022/04/13 11:49:33;;;;;;;4.27;3.70;;;22.40;25.90;;;;;;10378489;28;20230;-76
2022/04/13 11:54:46;;;;;;;3.87;3.57;;;22.50;25.80;;;;;;10373116;28;20229;-77
2022/04/13 11:59:51;;;;;;;3.60;3.30;;;22.60;25.50;;;;;;10378857;28;20239;-76
2022/04/13 12:05:02;;;;;;;4.23;3.83;;;22.80;25.60;;;;;;10377305;28;20236;-77
2022/04/13 12:10:08;;;;;;;4.10;3.80;;;22.90;25.20;;;;;;10375785;28;20226;-77
2022/04/13 12:15:11;;;;;;;4.20;3.80;;;23.00;25.60;;;;;;10373726;28;20230;-76
2022/04/13 12:20:31;;;;;;;5.80;3.67;;;23.10;25.60;;;;;;10382767;28;20238;-77
2022/04/13 12:25:42;;;;;;;4.23;3.50;;;23.20;25.10;;;;;;10375135;28;20312;-77
2022/04/13 12:30:55;;;;;;;3.80;3.50;;;23.30;24.80;;;;;;10383668;28;20566;-77
2022/04/13 12:36:01;;;;;;;4.73;4.27;;;23.30;25.00;;;;;;10374634;28;20234;-77
2022/04/13 12:41:13;;;;;;;5.10;4.60;;;23.40;24.70;;;;;;10373414;28;20230;-76
2022/04/13 12:46:17;;;;;;;4.70;4.23;;;23.50;24.70;;;;;;10378399;28;20241;-77
2022/04/13 12:51:23;;;;;;;5.23;4.70;;;23.60;25.20;;;;;;10376922;28;20260;-77
2022/04/13 12:56:28;;;;;;;6.07;5.57;;;23.60;25.10;;;;;;10375250;28;20234;-77
2022/04/13 13:01:33;;;;;;;6.27;5.23;;;23.60;24.80;;;;;;10375020;28;20256;-77
2022/04/13 13:06:39;;;;;;;6.60;6.00;;;23.70;24.80;;;;;;10376360;28;20234;-77
2022/04/13 13:11:54;;;;;;;6.60;5.90;;;23.70;24.80;;;;;;10375937;28;20602;-77
2022/04/13 13:16:57;;;;;;;5.60;5.10;;;23.70;24.70;;;;;;10372880;28;20245;-77
2022/04/13 13:22:13;;;;;;;5.50;5.00;;;23.80;25.30;;;;;;10379167;28;20316;-77
2022/04/13 13:27:21;;;;;;;6.17;5.20;;;23.80;24.60;;;;;;10372499;28;20228;-77
2022/04/13 13:32:27;;;;;;;5.57;5.10;;;23.80;25.00;;;;;;10376512;28;20232;-77
2022/04/13 13:37:42;;;;;;;5.77;5.27;;;23.90;24.60;;;;;;10385318;28;20719;-77
2022/04/13 13:42:45;;;;;;;5.47;4.97;;;23.90;24.20;;;;;;10386051;28;20578;-77
2022/04/13 13:47:49;;;;;;;5.57;4.83;;;23.90;24.90;;;;;;10382771;28;20737;-77
2022/04/13 13:52:53;;;;;;;6.70;5.40;;;23.90;24.80;;;;;;10380641;28;20227;-77
2022/04/13 13:57:58;;;;;;;4.33;3.70;;;23.90;24.60;;;;;;10382286;28;20769;-77
2022/04/13 14:03:01;;;;;;;5.53;5.03;;;24.00;24.30;;;;;;10383475;28;20756;-77
2022/04/13 14:08:08;;;;;;;6.03;5.17;;;24.10;24.40;;;;;;10381552;28;20705;-76
2022/04/13 14:13:13;;;;;;;4.97;4.47;;;24.10;24.20;;;;;;10383340;28;20237;-77
2022/04/13 14:18:17;;;;;;;5.57;4.90;;;24.10;24.00;;;;;;10381843;28;20246;-77
2022/04/13 14:23:21;;;;;;;6.70;5.27;;;24.20;24.20;;;;;;10379217;28;20237;-77
2022/04/13 14:28:25;;;;;;;5.67;5.17;;;24.30;24.00;;;;;;10380192;28;20225;-77
2022/04/13 14:33:28;;;;;;;6.10;5.43;;;24.30;24.30;;;;;;10383887;28;20233;-77
2022/04/13 14:38:33;;;;;;;5.57;5.07;;;24.40;24.00;;;;;;10374962;28;20230;-77
2022/04/13 14:43:36;;;;;;;6.50;5.60;;;24.40;23.80;;;;;;10379206;28;20238;-77
2022/04/13 14:48:39;;;;;;;6.77;5.60;;;24.50;24.10;;;;;;10378722;28;20230;-77
2022/04/13 14:53:44;;;;;;;5.30;4.80;;;24.50;24.10;;;;;;10380692;28;20591;-77
2022/04/13 14:58:47;;;;;;;6.03;5.13;;;24.60;23.70;;;;;;10379632;28;20230;-77
2022/04/13 15:03:51;;;;;;;6.93;5.87;;;24.60;23.80;;;;;;10385194;28;20236;-77
2022/04/13 15:08:56;;;;;;;7.43;5.97;;;24.70;23.80;;;;;;10380498;28;20233;-77
2022/04/13 15:14:00;;;;;;;6.90;6.20;;;24.70;23.50;;;;;;10379635;28;20237;-77
2022/04/13 15:19:05;;;;;;;7.13;6.30;;;24.70;23.50;;;;;;10381633;28;20318;-77
2022/04/13 15:24:09;;;;;;;8.60;6.13;;;24.70;23.50;;;;;;10381546;28;20321;-77
2022/04/13 15:29:13;;;;;;;9.50;6.97;;;24.70;23.10;;;;;;10377732;28;20601;-77
2022/04/13 15:34:16;;;;;;;7.80;6.70;;;24.70;23.30;;;;;;10378551;28;20240;-74
2022/04/13 15:39:21;;;;;;;7.80;7.00;;;24.70;23.60;;;;;;10384704;28;20233;-76
2022/04/13 15:44:24;;;;;;;8.27;6.93;;;24.70;23.40;;;;;;10383190;28;20233;-74
2022/04/13 15:49:27;;;;;;;8.20;6.93;;;24.70;23.60;;;;;;10379974;28;20239;-77
2022/04/13 15:54:32;;;;;;;6.97;6.27;;;24.60;23.50;;;;;;10377788;28;20236;-77
2022/04/13 15:59:35;;;;;;;6.20;5.33;;;24.60;23.50;;;;;;10375004;28;20229;-77
2022/04/13 16:04:38;;;;;;;5.47;4.97;;;24.60;23.20;;;;;;10373624;28;20228;-77
2022/04/13 16:09:43;;;;;;;5.93;5.00;;;24.60;23.40;;;;;;10377006;28;20240;-77
2022/04/13 16:14:47;;;;;;;5.53;5.03;;;24.60;22.90;;;;;;10375788;28;20634;-77
2022/04/13 16:19:50;;;;;;;6.43;5.10;;;24.50;23.00;;;;;;10378290;28;20604;-77
2022/04/13 16:24:55;;;;;;;6.77;5.17;;;24.50;23.20;;;;;;10375149;28;20292;-77
2022/04/13 16:29:58;;;;;;;5.93;5.10;;;24.50;22.80;;;;;;10379826;28;20225;-77
2022/04/13 16:35:02;;;;;;;6.50;5.03;;;24.50;23.10;;;;;;10382309;28;20605;-77
2022/04/13 16:40:09;;;;;;;5.60;4.97;;;24.50;23.20;;;;;;10377398;28;20233;-76
2022/04/13 16:45:17;;;;;;;6.93;4.80;;;24.50;22.90;;;;;;10372956;28;20222;-77
2022/04/13 16:50:22;;;;;;;6.93;5.40;;;24.50;23.30;;;;;;10378781;28;20641;-77
2022/04/13 16:55:27;;;;;;;6.67;5.97;;;24.50;23.50;;;;;;10374357;28;20638;-77
2022/04/13 17:00:30;;;;;;;5.80;4.83;;;24.50;23.40;;;;;;10379336;28;20612;-77
2022/04/13 17:05:36;;;;;;;5.87;4.80;;;24.40;23.50;;;;;;10377827;28;20232;-77
2022/04/13 17:10:40;;;;;;;5.43;4.90;;;24.30;23.70;;;;;;10381893;28;20244;-77
2022/04/13 17:15:43;;;;;;;6.73;4.47;;;24.30;23.80;;;;;;10386694;28;20229;-77
2022/04/13 17:20:47;;;;;;;5.90;5.10;;;24.20;23.80;;;;;;10382672;28;20234;-77
2022/04/13 17:25:52;;;;;;;7.57;5.90;;;24.10;23.70;;;;;;10380311;28;20969;-76
2022/04/13 17:30:55;;;;;;;5.87;5.23;;;23.90;23.70;;;;;;10379134;28;20226;-76
2022/04/13 17:35:59;;;;;;;5.37;4.83;;;23.80;23.60;;;;;;10382237;28;20316;-77
2022/04/13 17:41:04;;;;;;;6.03;5.23;;;23.70;23.70;;;;;;10383366;28;20228;-76
2022/04/13 17:46:07;;;;;;;5.33;4.70;;;23.50;23.80;;;;;;10385702;28;20260;-76
2022/04/13 17:51:11;;;;;;;4.87;4.33;;;23.40;23.80;;;;;;10383660;28;20229;-76
2022/04/13 17:56:15;;;;;;;6.83;4.83;;;23.30;23.90;;;;;;10379970;28;20246;-76
2022/04/13 18:01:20;;;;;;;4.93;4.20;;;23.20;24.10;;;;;;10383226;28;20247;-76
2022/04/13 18:06:23;;;;;;;4.40;4.00;;;23.00;24.00;;;;;;10381835;28;20595;-76
2022/04/13 18:11:28;;;;;;;4.50;4.10;;;22.80;23.90;;;;;;10381748;28;20598;-76
2022/04/13 18:16:32;;;;;;;5.70;4.67;;;22.60;24.00;;;;;;10383583;28;20242;-76
2022/04/13 18:21:35;;;;;;;7.10;5.13;;;22.50;24.00;;;;;;10376566;28;20283;-77
2022/04/13 18:26:40;;;;;;;4.93;4.53;;;22.40;24.10;;;;;;10381769;28;20226;-76
2022/04/13 18:31:44;;;;;;;4.83;4.27;;;22.20;24.10;;;;;;10382588;28;20828;-76
2022/04/13 18:36:47;;;;;;;6.30;5.17;;;22.20;24.20;;;;;;10377252;28;20234;-77
2022/04/13 18:41:51;;;;;;;6.73;5.13;;;22.00;24.10;;;;;;10387191;28;20236;-76
2022/04/13 18:46:55;;;;;;;4.47;4.07;;;21.90;24.20;;;;;;10379065;28;20230;-76
2022/04/13 18:51:59;;;;;;;4.63;4.13;;;21.90;24.30;;;;;;10385231;28;20229;-77
2022/04/13 18:57:04;;;;;;;4.50;4.10;;;21.80;24.40;;;;;;10381919;28;20217;-76
2022/04/13 19:02:08;;;;;;;4.97;4.50;;;21.70;24.50;;;;;;10382658;28;20234;-76
2022/04/13 19:07:13;;;;;;;6.63;4.77;;;21.60;24.50;;;;;;10381444;28;20261;-76
2022/04/13 19:12:17;;;;;;;5.97;5.47;;;21.50;24.40;;;;;;10381459;28;20230;-76
2022/04/13 19:17:21;;;;;;;7.17;6.53;;;21.40;24.60;;;;;;10380353;28;20797;-76
2022/04/13 19:22:25;;;;;;;6.93;6.23;;;21.30;24.50;;;;;;10383123;28;20237;-77
2022/04/13 19:27:29;;;;;;;7.23;6.53;;;21.10;24.70;;;;;;10377636;28;20221;-76
2022/04/13 19:32:34;;;;;;;6.77;6.17;;;21.00;24.70;;;;;;10377500;28;20234;-76
2022/04/13 19:37:37;;;;;;;8.83;7.93;;;20.90;24.70;;;;;;10375493;28;20226;-77
2022/04/13 19:42:42;;;;;;;8.40;6.77;;;20.70;24.60;;;;;;10375110;28;20242;-76
2022/04/13 19:47:45;;;;;;;14.10;12.70;;;20.40;24.70;;;;;;10378230;28;20233;-77
2022/04/13 19:52:49;;;;;;;14.60;13.03;;;20.10;24.70;;;;;;10378528;28;20222;-77
2022/04/13 19:57:54;;;;;;;11.17;9.93;;;19.80;25.20;;;;;;10380783;28;20236;-76
2022/04/13 20:02:57;;;;;;;9.30;8.30;;;19.60;25.10;;;;;;10378232;28;20233;-76
2022/04/13 20:08:02;;;;;;;7.40;6.73;;;19.40;24.90;;;;;;10383645;28;20226;-76
2022/04/13 20:13:07;;;;;;;9.00;7.20;;;19.20;25.10;;;;;;10378170;28;20339;-76
2022/04/13 20:18:10;;;;;;;10.43;6.97;;;19.10;25.40;;;;;;10373637;28;20332;-76
2022/04/13 20:23:14;;;;;;;8.60;6.50;;;19.00;25.30;;;;;;10381050;28;20233;-76
2022/04/13 20:28:19;;;;;;;6.93;6.23;;;18.80;25.40;;;;;;10381139;28;20241;-76
2022/04/13 20:33:22;;;;;;;8.07;7.23;;;18.70;25.80;;;;;;10376942;28;20720;-77
2022/04/13 20:38:25;;;;;;;9.30;8.40;;;18.60;25.70;;;;;;10379747;28;20221;-76
2022/04/13 20:43:30;;;;;;;8.37;7.57;;;18.40;25.70;;;;;;10389541;28;20236;-76
2022/04/13 20:48:33;;;;;;;8.80;7.27;;;18.30;25.90;;;;;;10397255;28;20225;-76
2022/04/13 20:53:36;;;;;;;8.90;7.27;;;18.10;25.70;;;;;;10387778;28;20792;-76
2022/04/13 20:58:41;;;;;;;6.80;6.20;;;17.80;25.90;;;;;;10388761;28;20301;-76
2022/04/13 21:03:46;;;;;;;8.80;6.67;;;17.60;26.50;;;;;;10389846;28;20225;-77
2022/04/13 21:08:50;;;;;;;7.13;6.43;;;17.50;26.50;;;;;;10390663;28;20228;-76
2022/04/13 21:13:54;;;;;;;8.60;6.80;;;17.40;26.60;;;;;;10391637;28;20230;-77
2022/04/13 21:18:58;;;;;;;10.50;7.03;;;17.40;27.10;;;;;;10392511;28;20229;-76
2022/04/13 21:24:01;;;;;;;6.97;5.93;;;17.30;26.80;;;;;;10394456;28;20230;-76
2022/04/13 21:29:05;;;;;;;6.30;5.30;;;17.30;26.80;;;;;;10384950;28;20597;-75
2022/04/13 21:34:10;;;;;;;7.77;6.13;;;17.30;27.00;;;;;;10388994;28;20222;-76
2022/04/13 21:39:13;;;;;;;8.83;6.63;;;17.20;26.70;;;;;;10391842;28;20230;-76
2022/04/13 21:44:18;;;;;;;7.33;6.43;;;17.20;26.90;;;;;;10394392;28;20230;-76
2022/04/13 21:49:21;;;;;;;6.13;5.53;;;17.20;27.10;;;;;;10392091;28;20890;-76
2022/04/13 21:54:25;;;;;;;8.57;6.77;;;17.10;26.80;;;;;;10393100;28;20284;-77
2022/04/13 21:59:29;;;;;;;5.73;5.13;;;17.00;26.90;;;;;;10381978;28;20230;-76
2022/04/13 22:04:33;;;;;;;6.60;5.87;;;16.90;27.00;;;;;;10383239;28;20231;-76
2022/04/13 22:09:36;;;;;;;5.20;4.70;;;16.90;26.90;;;;;;10395260;28;20226;-77
2022/04/13 22:14:40;;;;;;;5.53;5.03;;;16.80;26.90;;;;;;10384917;28;20229;-76
2022/04/13 22:19:44;;;;;;;5.83;5.23;;;16.70;26.90;;;;;;10384990;28;20222;-76
2022/04/13 22:24:47;;;;;;;5.80;5.30;;;16.60;26.90;;;;;;10378983;28;20233;-76
2022/04/13 22:29:53;;;;;;;5.63;5.13;;;16.50;26.80;;;;;;10380712;28;20226;-76
2022/04/13 22:34:56;;;;;;;5.57;5.07;;;16.40;27.20;;;;;;10384407;28;20256;-77
2022/04/13 22:39:59;;;;;;;5.90;4.90;;;16.30;27.10;;;;;;10378757;28;20781;-76
2022/04/13 22:45:04;;;;;;;5.80;4.23;;;16.20;27.00;;;;;;10376474;28;20698;-76
2022/04/13 22:50:09;;;;;;;6.53;5.73;;;16.00;27.20;;;;;;10382202;28;20222;-76
2022/04/13 22:55:12;;;;;;;6.57;5.97;;;15.90;27.40;;;;;;10379665;28;20237;-76
2022/04/13 23:00:18;;;;;;;5.87;5.37;;;15.80;27.20;;;;;;10385458;28;20225;-76
2022/04/13 23:05:21;;;;;;;6.17;5.57;;;15.60;27.40;;;;;;10379771;28;20222;-76
2022/04/13 23:10:24;;;;;;;5.67;5.17;;;15.30;27.20;;;;;;10389096;28;20222;-76
2022/04/13 23:15:29;;;;;;;6.27;5.67;;;15.20;27.50;;;;;;10383368;28;20230;-75
2022/04/13 23:20:32;;;;;;;5.70;5.20;;;15.10;28.10;;;;;;10386503;28;20234;-76
2022/04/13 23:25:36;;;;;;;6.27;5.67;;;15.00;27.80;;;;;;10383180;28;20236;-76
2022/04/13 23:30:41;;;;;;;6.27;5.70;;;15.00;27.80;;;;;;10384083;28;20257;-76
2022/04/13 23:35:44;;;;;;;6.50;5.83;;;15.00;28.00;;;;;;10381951;28;20226;-76
2022/04/13 23:40:47;;;;;;;6.70;6.10;;;15.00;27.80;;;;;;10385822;28;20249;-76
2022/04/13 23:45:52;;;;;;;6.17;5.57;;;14.90;27.80;;;;;;10375741;28;20241;-76
2022/04/13 23:50:55;;;;;;;7.07;5.57;;;14.90;28.10;;;;;;10374753;28;20232;-76
2022/04/13 23:55:59;;;;;;;5.50;5.00;;;14.80;28.00;;;;;;10380033;28;20238;-76
